createdAt,value
2022-09-01T00:00:33.437Z,59.14
2022-09-01T00:01:33.452Z,59.94
2022-09-01T00:02:33.528Z,57.52
2022-09-01T00:03:33.450Z,58.97
2022-09-01T00:04:33.505Z,57.85
2022-09-01T00:05:33.428Z,59.46
2022-09-01T00:06:33.415Z,57.52
2022-09-01T00:07:33.418Z,58.49
2022-09-01T00:08:33.413Z,57.36
2022-09-01T00:09:33.435Z,56.88
2022-09-01T00:10:33.384Z,59.30
2022-09-01T00:11:33.384Z,59.30
2022-09-01T00:12:33.377Z,58.33
2022-09-01T00:13:33.378Z,59.62
2022-09-01T00:14:33.371Z,58.65
2022-09-01T00:15:33.391Z,57.36
2022-09-01T00:16:33.358Z,57.20
2022-09-01T00:17:33.335Z,57.20
2022-09-01T00:18:33.364Z,58.01
2022-09-01T00:19:33.347Z,57.69
2022-09-01T00:20:33.333Z,57.85
2022-09-01T00:21:33.328Z,59.30
2022-09-01T00:22:33.309Z,59.14
2022-09-01T00:23:33.339Z,60.10
2022-09-01T00:24:33.323Z,59.14
2022-09-01T00:25:33.293Z,58.97
2022-09-01T00:26:33.295Z,58.97
2022-09-01T00:27:33.282Z,58.49
2022-09-01T00:28:33.281Z,59.30
2022-09-01T00:29:33.277Z,63.97
2022-09-01T00:30:33.261Z,59.14
2022-09-01T00:31:33.364Z,60.42
2022-09-01T00:32:33.252Z,59.46
2022-09-01T00:33:33.266Z,58.01
2022-09-01T00:34:33.244Z,58.01
2022-09-01T00:35:37.083Z,58.49
2022-09-01T00:36:33.210Z,58.01
2022-09-01T00:37:33.226Z,61.07
2022-09-01T00:38:33.250Z,59.62
2022-09-01T00:39:33.206Z,58.65
2022-09-01T00:40:33.283Z,59.14
2022-09-01T00:41:33.210Z,59.46
2022-09-01T00:42:33.198Z,60.59
2022-09-01T00:43:33.206Z,59.94
2022-09-01T00:44:33.178Z,59.78
2022-09-01T00:45:33.156Z,60.10
2022-09-01T00:46:33.263Z,66.39
2022-09-01T00:47:33.153Z,61.07
2022-09-01T00:48:33.167Z,62.52
2022-09-01T00:49:35.265Z,59.30
2022-09-01T00:50:33.134Z,60.59
2022-09-01T00:51:33.132Z,59.78
2022-09-01T00:52:33.117Z,59.62
2022-09-01T00:53:33.116Z,59.62
2022-09-01T00:54:33.123Z,59.62
2022-09-01T00:55:33.111Z,60.59
2022-09-01T00:56:33.112Z,61.07
2022-09-01T00:57:33.085Z,60.91
2022-09-01T00:58:33.101Z,59.62
2022-09-01T00:59:33.184Z,60.10
2022-09-01T01:00:33.089Z,62.04
2022-09-01T01:01:33.143Z,58.81
2022-09-01T01:02:33.091Z,59.62
2022-09-01T01:03:33.090Z,60.26
2022-09-01T01:04:33.057Z,60.10
2022-09-01T01:05:33.140Z,58.65
2022-09-01T01:06:33.059Z,59.78
2022-09-01T01:07:33.043Z,60.91
2022-09-01T01:08:33.025Z,58.81
2022-09-01T01:09:33.040Z,58.65
2022-09-01T01:10:33.044Z,59.14
2022-09-01T01:11:33.005Z,59.94
2022-09-01T01:12:33.029Z,59.62
2022-09-01T01:13:33.012Z,59.14
2022-09-01T01:14:33.020Z,58.65
2022-09-01T01:15:32.997Z,59.46
2022-09-01T01:16:33.064Z,60.26
2022-09-01T01:17:32.983Z,58.65
2022-09-01T01:18:32.988Z,59.30
2022-09-01T01:19:36.965Z,61.07
2022-09-01T01:20:33.954Z,59.62
2022-09-01T01:21:33.064Z,58.17
2022-09-01T01:22:32.931Z,58.01
2022-09-01T01:23:32.935Z,57.85
2022-09-01T01:24:32.933Z,57.69
2022-09-01T01:25:32.932Z,59.14
2022-09-01T01:26:32.926Z,59.30
2022-09-01T01:27:32.934Z,59.14
2022-09-01T01:28:33.910Z,60.10
2022-09-01T01:29:32.905Z,58.49
2022-09-01T01:30:32.953Z,60.59
2022-09-01T01:31:32.887Z,59.14
2022-09-01T01:32:32.881Z,58.81
2022-09-01T01:33:32.869Z,58.65
2022-09-01T01:34:32.860Z,59.30
2022-09-01T01:35:32.869Z,58.97
2022-09-01T01:36:32.880Z,59.14
2022-09-01T01:37:32.872Z,57.52
2022-09-01T01:38:32.974Z,58.97
2022-09-01T01:39:32.854Z,59.30
2022-09-01T01:40:32.938Z,57.69
2022-09-01T01:41:33.111Z,58.65
2022-09-01T01:42:32.814Z,58.97
2022-09-01T01:43:33.843Z,59.62
2022-09-01T01:44:32.829Z,60.10
2022-09-01T01:45:32.811Z,59.14
2022-09-01T01:46:32.877Z,58.49
2022-09-01T01:47:32.788Z,58.97
2022-09-01T01:48:32.811Z,58.33
2022-09-01T01:49:32.802Z,59.78
2022-09-01T01:50:32.800Z,60.10
2022-09-01T01:51:32.762Z,58.65
2022-09-01T01:52:32.766Z,58.01
2022-09-01T01:53:32.773Z,57.85
2022-09-01T01:54:32.869Z,58.33
2022-09-01T01:55:32.754Z,60.26
2022-09-01T01:56:32.760Z,58.17
2022-09-01T01:57:32.752Z,60.10
2022-09-01T01:58:32.744Z,58.01
2022-09-01T01:59:33.011Z,58.33
2022-09-01T02:00:32.739Z,57.69
2022-09-01T02:01:32.758Z,57.85
2022-09-01T02:02:33.529Z,58.01
2022-09-01T02:03:32.711Z,59.30
2022-09-01T02:04:32.735Z,58.33
2022-09-01T02:05:32.697Z,59.62
2022-09-01T02:06:32.689Z,58.49
2022-09-01T02:07:32.978Z,58.97
2022-09-01T02:08:32.686Z,57.85
2022-09-01T02:09:32.709Z,58.97
2022-09-01T02:10:32.669Z,60.75
2022-09-01T02:11:32.674Z,58.81
2022-09-01T02:12:32.677Z,59.62
2022-09-01T02:13:32.639Z,59.30
2022-09-01T02:14:33.659Z,58.33
2022-09-01T02:15:32.609Z,59.14
2022-09-01T02:16:32.663Z,59.62
2022-09-01T02:17:32.621Z,59.30
2022-09-01T02:18:32.605Z,59.62
2022-09-01T02:19:32.589Z,58.65
2022-09-01T02:20:33.093Z,58.49
2022-09-01T02:21:32.575Z,59.94
2022-09-01T02:22:32.577Z,59.46
2022-09-01T02:23:32.567Z,59.46
2022-09-01T02:24:32.593Z,59.94
2022-09-01T02:25:32.598Z,58.65
2022-09-01T02:26:32.600Z,59.30
2022-09-01T02:27:32.557Z,59.94
2022-09-01T02:28:32.552Z,58.49
2022-09-01T02:29:33.287Z,59.62
2022-09-01T02:30:33.623Z,58.65
2022-09-01T02:31:32.538Z,61.07
2022-09-01T02:32:32.555Z,58.81
2022-09-01T02:33:32.537Z,60.10
2022-09-01T02:34:32.545Z,59.14
2022-09-01T02:35:32.498Z,59.14
2022-09-01T02:36:32.641Z,59.30
2022-09-01T02:37:32.549Z,59.62
2022-09-01T02:38:32.493Z,59.62
2022-09-01T02:39:32.479Z,58.81
2022-09-01T02:40:32.521Z,59.14
2022-09-01T02:41:32.561Z,59.30
2022-09-01T02:42:32.450Z,62.52
2022-09-01T02:43:32.473Z,61.23
2022-09-01T02:44:32.458Z,59.46
2022-09-01T02:45:32.546Z,61.39
2022-09-01T02:46:32.446Z,59.62
2022-09-01T02:47:32.541Z,59.30
2022-09-01T02:48:32.445Z,59.30
2022-09-01T02:49:32.421Z,59.94
2022-09-01T02:50:32.408Z,63.65
2022-09-01T02:51:32.413Z,61.07
2022-09-01T02:52:32.413Z,62.84
2022-09-01T02:53:32.428Z,60.75
2022-09-01T02:54:32.398Z,60.91
2022-09-01T02:55:32.370Z,60.42
2022-09-01T02:56:32.383Z,59.78
2022-09-01T02:57:32.385Z,59.94
2022-09-01T02:58:32.391Z,59.62
2022-09-01T02:59:32.362Z,59.62
2022-09-01T03:00:32.351Z,60.10
2022-09-01T03:01:32.432Z,60.10
2022-09-01T03:02:32.354Z,59.62
2022-09-01T03:03:33.107Z,59.46
2022-09-01T03:04:32.420Z,62.04
2022-09-01T03:05:32.315Z,61.55
2022-09-01T03:06:32.350Z,59.78
2022-09-01T03:07:32.317Z,60.10
2022-09-01T03:08:32.313Z,59.62
2022-09-01T03:09:32.331Z,63.49
2022-09-01T03:10:32.301Z,62.20
2022-09-01T03:11:32.271Z,60.26
2022-09-01T03:12:32.288Z,59.46
2022-09-01T03:13:32.273Z,61.23
2022-09-01T03:14:32.289Z,60.59
2022-09-01T03:15:32.265Z,60.59
2022-09-01T03:16:32.350Z,63.00
2022-09-01T03:17:32.229Z,61.07
2022-09-01T03:18:32.238Z,62.52
2022-09-01T03:19:32.216Z,62.84
2022-09-01T03:20:32.328Z,60.75
2022-09-01T03:21:32.258Z,59.46
2022-09-01T03:22:32.225Z,59.78
2022-09-01T03:23:32.215Z,60.59
2022-09-01T03:24:32.201Z,60.42
2022-09-01T03:25:32.231Z,59.62
2022-09-01T03:26:32.202Z,59.78
2022-09-01T03:27:32.194Z,63.65
2022-09-01T03:28:32.179Z,65.10
2022-09-01T03:29:32.173Z,59.78
2022-09-01T03:30:32.169Z,60.10
2022-09-01T03:31:32.328Z,61.55
2022-09-01T03:32:32.160Z,60.75
2022-09-01T03:33:32.151Z,60.42
2022-09-01T03:34:32.143Z,62.84
2022-09-01T03:35:32.161Z,67.68
2022-09-01T03:36:32.243Z,59.94
2022-09-01T03:37:32.131Z,60.59
2022-09-01T03:38:32.127Z,61.07
2022-09-01T03:39:32.131Z,63.00
2022-09-01T03:40:32.144Z,63.49
2022-09-01T03:41:32.110Z,64.94
2022-09-01T03:42:32.186Z,62.04
2022-09-01T03:43:35.780Z,61.07
2022-09-01T03:44:32.100Z,62.04
2022-09-01T03:45:32.130Z,62.52
2022-09-01T03:46:35.859Z,61.71
2022-09-01T03:47:33.093Z,61.55
2022-09-01T03:48:32.136Z,63.49
2022-09-01T03:49:32.060Z,62.52
2022-09-01T03:50:32.059Z,60.42
2022-09-01T03:51:32.039Z,60.10
2022-09-01T03:52:32.047Z,61.87
2022-09-01T03:53:32.052Z,60.26
2022-09-01T03:54:32.025Z,60.91
2022-09-01T03:55:32.029Z,67.35
2022-09-01T03:56:32.018Z,63.65
2022-09-01T03:57:32.545Z,63.49
2022-09-01T03:58:32.011Z,64.13
2022-09-01T03:59:31.983Z,62.36
2022-09-01T04:00:32.002Z,62.68
2022-09-01T04:01:32.013Z,63.81
2022-09-01T04:02:32.086Z,63.33
2022-09-01T04:03:32.001Z,67.35
2022-09-01T04:04:31.983Z,61.07
2022-09-01T04:05:31.957Z,64.61
2022-09-01T04:06:31.936Z,68.48
2022-09-01T04:07:31.963Z,61.55
2022-09-01T04:08:32.966Z,61.23
2022-09-01T04:09:31.950Z,70.90
2022-09-01T04:10:31.933Z,63.97
2022-09-01T04:11:31.933Z,64.13
2022-09-01T04:12:31.930Z,63.16
2022-09-01T04:13:31.920Z,68.96
2022-09-01T04:14:32.032Z,63.16
2022-09-01T04:15:31.894Z,65.26
2022-09-01T04:16:31.954Z,64.94
2022-09-01T04:17:31.907Z,63.49
2022-09-01T04:18:31.896Z,68.80
2022-09-01T04:19:31.995Z,65.10
2022-09-01T04:20:31.884Z,62.36
2022-09-01T04:21:31.863Z,64.94
2022-09-01T04:22:31.875Z,69.61
2022-09-01T04:23:31.846Z,63.49
2022-09-01T04:24:31.853Z,64.94
2022-09-01T04:25:31.893Z,64.94
2022-09-01T04:26:31.822Z,63.65
2022-09-01T04:27:31.837Z,63.16
2022-09-01T04:28:31.820Z,64.94
2022-09-01T04:29:32.138Z,63.65
2022-09-01T04:30:31.859Z,72.03
2022-09-01T04:31:31.873Z,67.35
2022-09-01T04:32:31.812Z,65.26
2022-09-01T04:33:31.797Z,66.71
2022-09-01T04:34:31.781Z,63.65
2022-09-01T04:35:31.789Z,65.42
2022-09-01T04:36:33.048Z,68.48
2022-09-01T04:37:31.789Z,68.32
2022-09-01T04:38:31.773Z,63.65
2022-09-01T04:39:31.743Z,67.51
2022-09-01T04:40:31.817Z,70.42
2022-09-01T04:41:31.765Z,67.35
2022-09-01T04:42:31.742Z,64.94
2022-09-01T04:43:31.728Z,65.90
2022-09-01T04:44:31.722Z,66.39
2022-09-01T04:45:31.754Z,66.23
2022-09-01T04:46:31.697Z,68.96
2022-09-01T04:47:36.038Z,67.68
2022-09-01T04:48:31.759Z,63.16
2022-09-01T04:49:31.680Z,69.29
2022-09-01T04:50:31.680Z,64.13
2022-09-01T04:51:31.676Z,65.26
2022-09-01T04:52:31.714Z,65.42
2022-09-01T04:53:31.658Z,65.42
2022-09-01T04:54:31.677Z,66.06
2022-09-01T04:55:31.677Z,69.61
2022-09-01T04:56:31.653Z,64.29
2022-09-01T04:57:31.633Z,63.49
2022-09-01T04:58:32.675Z,67.84
2022-09-01T04:59:31.637Z,65.90
2022-09-01T05:00:31.680Z,68.64
2022-09-01T05:01:31.633Z,69.77
2022-09-01T05:02:31.722Z,69.45
2022-09-01T05:03:31.615Z,68.16
2022-09-01T05:04:31.627Z,66.06
2022-09-01T05:05:31.601Z,64.13
2022-09-01T05:06:31.589Z,70.58
2022-09-01T05:07:31.590Z,65.58
2022-09-01T05:08:32.734Z,64.78
2022-09-01T05:09:31.598Z,64.45
2022-09-01T05:10:31.565Z,67.03
2022-09-01T05:11:31.572Z,65.42
2022-09-01T05:12:31.552Z,67.51
2022-09-01T05:13:31.563Z,65.26
2022-09-01T05:14:31.558Z,65.10
2022-09-01T05:15:31.543Z,63.49
2022-09-01T05:16:31.590Z,64.29
2022-09-01T05:17:31.537Z,66.87
2022-09-01T05:18:31.528Z,68.16
2022-09-01T05:19:31.539Z,64.61
2022-09-01T05:20:31.528Z,67.51
2022-09-01T05:21:31.504Z,70.09
2022-09-01T05:22:31.493Z,68.00
2022-09-01T05:23:31.498Z,65.42
2022-09-01T05:24:31.515Z,65.58
2022-09-01T05:25:31.492Z,64.61
2022-09-01T05:26:31.485Z,63.16
2022-09-01T05:27:31.479Z,68.48
2022-09-01T05:28:31.515Z,67.19
2022-09-01T05:29:31.478Z,63.33
2022-09-01T05:30:31.452Z,64.13
2022-09-01T05:31:31.514Z,65.26
2022-09-01T05:32:31.441Z,67.03
2022-09-01T05:33:31.462Z,69.13
2022-09-01T05:34:31.455Z,74.12
2022-09-01T05:35:32.780Z,65.10
2022-09-01T05:36:31.411Z,66.87
2022-09-01T05:37:31.414Z,64.78
2022-09-01T05:38:31.436Z,65.90
2022-09-01T05:39:31.418Z,67.68
2022-09-01T05:40:31.441Z,68.80
2022-09-01T05:41:31.394Z,69.77
2022-09-01T05:42:31.372Z,63.49
2022-09-01T05:43:31.397Z,68.48
2022-09-01T05:44:31.383Z,65.10
2022-09-01T05:45:44.884Z,64.13
2022-09-01T05:46:32.407Z,70.74
2022-09-01T05:47:31.350Z,66.87
2022-09-01T05:48:31.358Z,75.41
2022-09-01T05:49:31.348Z,68.64
2022-09-01T05:50:31.338Z,70.25
2022-09-01T05:51:44.349Z,66.23
2022-09-01T05:52:33.334Z,65.90
2022-09-01T05:53:31.343Z,64.29
2022-09-01T05:54:31.332Z,78.31
2022-09-01T05:55:31.333Z,77.18
2022-09-01T05:56:31.312Z,76.70
2022-09-01T05:57:34.692Z,76.54
2022-09-01T05:59:32.285Z,77.83
2022-09-01T06:00:31.337Z,77.02
2022-09-01T06:01:31.333Z,77.67
2022-09-01T06:02:31.348Z,77.50
2022-09-01T06:03:31.349Z,77.18
2022-09-01T06:04:31.293Z,76.86
2022-09-01T06:05:31.244Z,76.86
2022-09-01T06:06:43.793Z,72.03
2022-09-01T06:07:31.241Z,71.38
2022-09-01T06:08:31.233Z,65.74
2022-09-01T06:09:31.252Z,68.48
2022-09-01T06:10:31.213Z,68.00
2022-09-01T06:11:31.211Z,63.97
2022-09-01T06:12:31.194Z,64.45
2022-09-01T06:13:32.199Z,67.51
2022-09-01T06:14:31.203Z,69.61
2022-09-01T06:15:31.302Z,66.71
2022-09-01T06:16:31.272Z,63.33
2022-09-01T06:17:34.666Z,67.84
2022-09-01T06:18:31.175Z,65.42
2022-09-01T06:19:36.205Z,65.58
2022-09-01T06:20:32.281Z,65.74
2022-09-01T06:21:31.151Z,68.48
2022-09-01T06:22:31.142Z,63.97
2022-09-01T06:23:31.135Z,65.90
2022-09-01T06:24:31.133Z,70.25
2022-09-01T06:25:31.140Z,67.35
2022-09-01T06:26:31.146Z,69.77
2022-09-01T06:27:31.125Z,65.42
2022-09-01T06:28:31.118Z,68.32
2022-09-01T06:29:31.115Z,65.10
2022-09-01T06:30:31.104Z,67.51
2022-09-01T06:31:31.152Z,63.65
2022-09-01T06:32:31.111Z,60.26
2022-09-01T06:33:31.090Z,63.33
2022-09-01T06:34:31.089Z,68.32
2022-09-01T06:35:31.068Z,66.39
2022-09-01T06:36:34.845Z,66.87
2022-09-01T06:37:31.176Z,68.48
2022-09-01T06:38:31.054Z,63.33
2022-09-01T06:39:31.046Z,70.58
2022-09-01T06:40:31.115Z,63.97
2022-09-01T06:41:31.037Z,73.15
2022-09-01T06:42:31.055Z,61.55
2022-09-01T06:43:31.034Z,68.96
2022-09-01T06:44:31.065Z,69.45
2022-09-01T06:45:31.024Z,63.65
2022-09-01T06:46:31.082Z,66.87
2022-09-01T06:47:31.002Z,63.16
2022-09-01T06:48:31.079Z,64.78
2022-09-01T06:49:31.001Z,62.04
2022-09-01T06:51:32.110Z,62.52
2022-09-01T06:53:31.941Z,66.39
2022-09-01T06:53:34.147Z,63.97
2022-09-01T06:54:31.961Z,61.39
2022-09-01T06:55:30.959Z,65.74
2022-09-01T06:56:31.986Z,62.52
2022-09-01T06:58:31.961Z,60.91
2022-09-01T06:59:34.567Z,65.90
2022-09-01T07:00:32.059Z,60.42
2022-09-01T07:01:31.060Z,60.10
2022-09-01T07:03:31.906Z,65.90
2022-09-01T07:04:30.935Z,64.78
2022-09-01T07:08:32.889Z,63.49
2022-09-01T07:09:47.593Z,61.87
2022-09-01T07:10:30.863Z,69.77
2022-09-01T07:12:31.855Z,70.25
2022-09-01T07:13:30.840Z,62.68
2022-09-01T07:14:30.829Z,65.90
2022-09-01T07:16:34.680Z,64.45
2022-09-01T07:17:31.827Z,69.45
2022-09-01T07:18:30.841Z,63.97
2022-09-01T07:20:30.847Z,62.36
2022-09-01T07:21:40.901Z,63.49
2022-09-01T07:22:36.975Z,63.00
2022-09-01T07:23:46.328Z,59.94
2022-09-01T07:24:32.776Z,58.33
2022-09-01T07:25:51.146Z,63.16
2022-09-01T07:26:32.785Z,71.54
2022-09-01T07:27:36.090Z,62.84
2022-09-01T07:28:37.639Z,61.07
2022-09-01T07:29:32.738Z,62.84
2022-09-01T07:30:30.756Z,67.68
2022-09-01T07:32:48.100Z,67.35
2022-09-01T07:33:53.872Z,62.36
2022-09-01T07:34:40.111Z,60.75
2022-09-01T07:35:32.718Z,62.04
2022-09-01T07:36:31.065Z,64.29
2022-09-01T07:39:47.129Z,60.26
2022-09-01T07:42:59.010Z,58.97
2022-09-01T07:43:33.473Z,58.97
2022-09-01T07:44:30.664Z,61.87
2022-09-01T07:45:30.666Z,63.16
2022-09-01T07:46:38.158Z,68.96
2022-09-01T07:49:50.097Z,59.78
2022-09-01T07:51:07.486Z,59.14
2022-09-01T07:51:37.111Z,62.20
2022-09-01T07:52:32.735Z,67.51
2022-09-01T07:53:30.601Z,58.49
2022-09-01T07:54:30.603Z,61.23
2022-09-01T07:55:30.602Z,59.78
2022-09-01T07:56:30.596Z,57.04
2022-09-01T07:57:30.590Z,57.04
2022-09-01T07:58:30.682Z,58.81
2022-09-01T07:59:30.581Z,59.14
2022-09-01T08:00:31.542Z,59.62
2022-09-01T08:01:30.585Z,58.17
2022-09-01T08:02:30.583Z,61.71
2022-09-01T08:03:30.673Z,57.04
2022-09-01T08:04:30.543Z,62.68
2022-09-01T08:05:30.540Z,61.07
2022-09-01T08:06:38.050Z,66.87
2022-09-01T08:07:30.534Z,63.49
2022-09-01T08:08:30.927Z,62.68
2022-09-01T08:09:37.532Z,59.30
2022-09-01T08:10:32.522Z,64.94
2022-09-01T08:12:32.498Z,63.97
2022-09-01T08:13:30.500Z,65.10
2022-09-01T08:14:33.741Z,60.59
2022-09-01T08:16:39.214Z,59.62
2022-09-01T08:17:50.210Z,59.46
2022-09-01T08:18:48.217Z,57.04
2022-09-01T08:19:31.490Z,60.42
2022-09-01T08:20:30.452Z,66.87
2022-09-01T08:21:30.453Z,62.68
2022-09-01T08:22:30.445Z,58.49
2022-09-01T08:23:30.436Z,65.90
2022-09-01T08:24:30.434Z,66.71
2022-09-01T08:25:30.536Z,63.00
2022-09-01T08:26:30.431Z,59.30
2022-09-01T08:27:30.408Z,56.40
2022-09-01T08:28:30.582Z,57.85
2022-09-01T08:29:30.705Z,60.59
2022-09-01T08:30:30.404Z,57.69
2022-09-01T08:31:30.986Z,61.07
2022-09-01T08:32:31.386Z,57.52
2022-09-01T08:33:30.370Z,59.30
2022-09-01T08:34:31.382Z,54.30
2022-09-01T08:35:31.023Z,57.69
2022-09-01T08:36:30.416Z,57.69
2022-09-01T08:37:30.337Z,60.42
2022-09-01T08:38:30.346Z,62.04
2022-09-01T08:39:30.344Z,61.23
2022-09-01T08:40:30.452Z,63.33
2022-09-01T08:41:35.370Z,63.49
2022-09-01T08:42:33.054Z,58.33
2022-09-01T08:43:30.317Z,60.26
2022-09-01T08:44:30.326Z,56.07
2022-09-01T08:45:30.321Z,61.71
2022-09-01T08:46:30.374Z,59.78
2022-09-01T08:47:43.635Z,63.33
2022-09-01T08:49:42.915Z,60.26
2022-09-01T08:50:31.278Z,59.94
2022-09-01T08:51:30.524Z,59.62
2022-09-01T08:52:30.269Z,59.62
2022-09-01T08:53:32.649Z,58.65
2022-09-01T08:54:32.052Z,59.46
2022-09-01T08:55:30.255Z,65.42
2022-09-01T08:56:30.378Z,58.97
2022-09-01T08:57:30.233Z,59.14
2022-09-01T08:58:32.295Z,60.75
2022-09-01T08:59:30.235Z,60.59
2022-09-01T09:00:30.267Z,62.68
2022-09-01T09:01:30.526Z,61.07
2022-09-01T09:02:31.266Z,63.33
2022-09-01T09:03:40.443Z,53.98
2022-09-01T09:04:30.207Z,54.46
2022-09-01T09:05:30.202Z,58.65
2022-09-01T09:06:30.211Z,60.75
2022-09-01T09:07:30.179Z,55.27
2022-09-01T09:08:33.198Z,59.14
2022-09-01T09:09:34.131Z,59.62
2022-09-01T09:10:31.165Z,58.17
2022-09-01T09:11:30.180Z,64.78
2022-09-01T09:12:30.163Z,64.78
2022-09-01T09:13:30.148Z,60.59
2022-09-01T09:14:30.173Z,63.33
2022-09-01T09:15:30.182Z,61.71
2022-09-01T09:16:31.275Z,68.80
2022-09-01T09:17:30.152Z,58.65
2022-09-01T09:18:38.827Z,63.97
2022-09-01T09:19:31.171Z,59.62
2022-09-01T09:20:30.127Z,60.42
2022-09-01T09:21:30.386Z,57.20
2022-09-01T09:22:30.105Z,55.75
2022-09-01T09:23:30.116Z,59.46
2022-09-01T09:24:37.081Z,58.65
2022-09-01T09:25:30.111Z,57.69
2022-09-01T09:26:42.187Z,55.11
2022-09-01T09:27:32.089Z,62.52
2022-09-01T09:28:30.077Z,62.36
2022-09-01T09:29:30.077Z,56.56
2022-09-01T09:30:30.183Z,53.98
2022-09-01T09:31:30.122Z,59.62
2022-09-01T09:32:50.394Z,60.91
2022-09-01T09:33:48.531Z,57.20
2022-09-01T09:34:32.033Z,54.46
2022-09-01T09:35:30.062Z,53.66
2022-09-01T09:36:30.030Z,56.88
2022-09-01T09:37:30.032Z,58.97
2022-09-01T09:38:30.017Z,59.78
2022-09-01T09:39:30.028Z,60.26
2022-09-01T09:40:30.059Z,61.71
2022-09-01T09:41:30.071Z,56.72
2022-09-01T09:42:34.854Z,60.26
2022-09-01T09:43:31.989Z,60.10
2022-09-01T09:44:29.992Z,60.26
2022-09-01T09:45:29.984Z,59.62
2022-09-01T09:46:30.134Z,57.69
2022-09-01T09:47:43.233Z,60.75
2022-09-01T09:48:31.979Z,60.59
2022-09-01T09:49:36.623Z,64.13
2022-09-01T09:50:29.954Z,62.68
2022-09-01T09:51:29.947Z,63.81
2022-09-01T09:52:30.047Z,56.56
2022-09-01T09:53:29.930Z,61.39
2022-09-01T09:54:29.919Z,56.07
2022-09-01T09:55:29.947Z,61.71
2022-09-01T09:56:29.919Z,64.13
2022-09-01T09:57:29.947Z,59.30
2022-09-01T09:58:29.964Z,58.97
2022-09-01T09:59:56.564Z,56.07
2022-09-01T10:00:31.889Z,58.01
2022-09-01T10:01:30.026Z,63.97
2022-09-01T10:02:29.895Z,59.46
2022-09-01T10:03:29.990Z,62.84
2022-09-01T10:04:29.901Z,58.49
2022-09-01T10:05:30.091Z,58.17
2022-09-01T10:06:29.875Z,57.69
2022-09-01T10:07:29.856Z,59.30
2022-09-01T10:08:29.902Z,65.26
2022-09-01T10:09:29.853Z,68.00
2022-09-01T10:10:29.847Z,62.04
2022-09-01T10:11:33.453Z,62.04
2022-09-01T10:12:31.833Z,65.42
2022-09-01T10:13:32.462Z,58.97
2022-09-01T10:14:52.394Z,64.29
2022-09-01T10:15:31.821Z,58.49
2022-09-01T10:16:32.094Z,60.42
2022-09-01T10:17:29.916Z,65.58
2022-09-01T10:18:29.810Z,60.10
2022-09-01T10:19:35.113Z,60.91
2022-09-01T10:20:30.797Z,67.68
2022-09-01T10:21:29.778Z,68.00
2022-09-01T10:22:30.398Z,61.71
2022-09-01T10:23:31.032Z,58.81
2022-09-01T10:24:30.746Z,58.81
2022-09-01T10:25:32.380Z,63.65
2022-09-01T10:26:29.749Z,62.52
2022-09-01T10:27:29.742Z,63.81
2022-09-01T10:28:29.743Z,59.30
2022-09-01T10:29:35.062Z,62.52
2022-09-01T10:30:29.993Z,58.17
2022-09-01T10:31:32.532Z,64.13
2022-09-01T10:32:37.251Z,67.19
2022-09-01T10:33:31.705Z,60.26
2022-09-01T10:34:29.707Z,58.97
2022-09-01T10:35:29.710Z,62.36
2022-09-01T10:36:29.734Z,65.10
2022-09-01T10:37:29.704Z,60.75
2022-09-01T10:38:29.715Z,60.42
2022-09-01T10:39:31.095Z,62.36
2022-09-01T10:40:31.641Z,59.78
2022-09-01T10:41:30.692Z,61.71
2022-09-01T10:42:29.693Z,64.78
2022-09-01T10:43:30.635Z,62.04
2022-09-01T10:44:31.328Z,60.75
2022-09-01T10:45:30.668Z,59.30
2022-09-01T10:46:41.240Z,62.84
2022-09-01T10:47:30.697Z,57.04
2022-09-01T10:48:31.991Z,59.62
2022-09-01T10:49:30.626Z,66.87
2022-09-01T10:50:35.104Z,61.71
2022-09-01T10:51:36.278Z,58.49
2022-09-01T10:52:30.622Z,56.56
2022-09-01T10:53:29.619Z,60.91
2022-09-01T10:54:29.622Z,63.97
2022-09-01T10:55:29.613Z,63.00
2022-09-01T10:56:36.586Z,64.13
2022-09-01T10:57:30.670Z,59.62
2022-09-01T10:59:33.703Z,59.78
2022-09-01T11:00:35.120Z,58.97
2022-09-01T11:01:47.776Z,62.68
2022-09-01T11:02:35.971Z,57.85
2022-09-01T11:03:31.967Z,60.75
2022-09-01T11:04:29.788Z,59.46
2022-09-01T11:05:33.226Z,57.20
2022-09-01T11:06:33.306Z,59.78
2022-09-01T11:07:50.447Z,62.04
2022-09-01T11:08:30.851Z,57.20
2022-09-01T11:09:29.513Z,60.42
2022-09-01T11:10:33.870Z,59.46
2022-09-01T11:11:30.507Z,58.65
2022-09-01T11:12:30.236Z,58.81
2022-09-01T11:13:29.517Z,63.65
2022-09-01T11:14:29.506Z,62.52
2022-09-01T11:15:29.496Z,59.62
2022-09-01T11:17:29.660Z,64.78
2022-09-01T11:18:30.007Z,62.36
2022-09-01T11:19:29.467Z,63.81
2022-09-01T11:20:29.465Z,66.87
2022-09-01T11:21:29.458Z,62.20
2022-09-01T11:22:29.468Z,62.36
2022-09-01T11:23:29.465Z,66.55
2022-09-01T11:24:29.562Z,58.17
2022-09-01T11:25:38.813Z,62.84
2022-09-01T11:26:31.432Z,64.94
2022-09-01T11:27:29.425Z,60.10
2022-09-01T11:28:29.426Z,58.17
2022-09-01T11:29:29.458Z,63.97
2022-09-01T11:30:29.414Z,65.10
2022-09-01T11:31:29.514Z,58.97
2022-09-01T11:32:29.409Z,59.62
2022-09-01T11:33:30.392Z,59.30
2022-09-01T11:34:29.390Z,57.69
2022-09-01T11:35:29.398Z,64.94
2022-09-01T11:36:29.373Z,61.39
2022-09-01T11:37:29.359Z,60.26
2022-09-01T11:38:29.374Z,63.00
2022-09-01T11:39:29.353Z,60.91
2022-09-01T11:40:32.360Z,61.87
2022-09-01T11:41:29.348Z,61.39
2022-09-01T11:42:29.353Z,64.61
2022-09-01T11:43:29.356Z,57.20
2022-09-01T11:44:29.320Z,57.20
2022-09-01T11:45:29.382Z,64.29
2022-09-01T11:46:29.427Z,59.62
2022-09-01T11:47:29.338Z,59.78
2022-09-01T11:48:29.333Z,62.52
2022-09-01T11:49:29.312Z,59.46
2022-09-01T11:50:29.311Z,60.42
2022-09-01T11:51:29.415Z,64.45
2022-09-01T11:52:29.290Z,66.39
2022-09-01T11:53:29.295Z,62.20
2022-09-01T11:54:29.278Z,59.78
2022-09-01T11:55:29.261Z,62.52
2022-09-01T11:56:29.265Z,62.04
2022-09-01T11:57:29.384Z,62.20
2022-09-01T11:58:29.250Z,62.52
2022-09-01T11:59:29.253Z,60.59
2022-09-01T12:00:29.237Z,58.81
2022-09-01T12:01:29.225Z,57.85
2022-09-01T12:02:29.363Z,57.85
2022-09-01T12:03:29.352Z,60.10
2022-09-01T12:04:29.229Z,62.20
2022-09-01T12:05:29.225Z,62.68
2022-09-01T12:06:29.216Z,62.36
2022-09-01T12:07:29.212Z,59.62
2022-09-01T12:08:29.327Z,61.55
2022-09-01T12:09:29.185Z,63.81
2022-09-01T12:10:29.190Z,60.26
2022-09-01T12:11:29.200Z,58.33
2022-09-01T12:12:29.194Z,59.62
2022-09-01T12:13:29.296Z,58.81
2022-09-01T12:14:43.412Z,58.81
2022-09-01T12:15:29.176Z,61.55
2022-09-01T12:16:29.225Z,58.65
2022-09-01T12:17:29.139Z,61.55
2022-09-01T12:18:29.165Z,57.69
2022-09-01T12:19:29.254Z,59.62
2022-09-01T12:20:29.912Z,63.65
2022-09-01T12:21:29.201Z,62.20
2022-09-01T12:22:29.188Z,62.52
2022-09-01T12:23:29.126Z,60.59
2022-09-01T12:24:29.148Z,66.23
2022-09-01T12:25:29.120Z,59.94
2022-09-01T12:26:29.098Z,68.32
2022-09-01T12:27:29.101Z,59.14
2022-09-01T12:28:30.524Z,65.10
2022-09-01T12:29:32.220Z,61.55
2022-09-01T12:30:29.178Z,64.78
2022-09-01T12:31:29.115Z,65.10
2022-09-01T12:32:29.065Z,62.36
2022-09-01T12:33:29.092Z,57.52
2022-09-01T12:34:29.050Z,65.90
2022-09-01T12:35:29.096Z,65.42
2022-09-01T12:36:29.050Z,66.23
2022-09-01T12:37:29.045Z,61.23
2022-09-01T12:38:29.049Z,61.23
2022-09-01T12:39:29.030Z,63.81
2022-09-01T12:40:29.069Z,59.14
2022-09-01T12:41:29.213Z,65.26
2022-09-01T12:42:29.008Z,64.78
2022-09-01T12:43:30.028Z,62.36
2022-09-01T12:44:30.495Z,56.72
2022-09-01T12:45:29.023Z,62.68
2022-09-01T12:46:29.106Z,58.97
2022-09-01T12:47:28.993Z,65.74
2022-09-01T12:48:28.979Z,66.71
2022-09-01T12:49:29.046Z,63.33
2022-09-01T12:50:29.681Z,60.26
2022-09-01T12:51:31.534Z,65.10
2022-09-01T12:52:29.962Z,59.46
2022-09-01T12:53:30.605Z,63.97
2022-09-01T12:54:28.943Z,68.32
2022-09-01T12:56:30.955Z,63.97
2022-09-01T12:57:29.125Z,62.04
2022-09-01T12:58:28.923Z,63.65
2022-09-01T12:59:36.331Z,60.10
2022-09-01T13:00:28.899Z,64.61
2022-09-01T13:01:29.099Z,59.14
2022-09-01T13:02:29.062Z,60.26
2022-09-01T13:03:28.917Z,66.06
2022-09-01T13:04:28.877Z,63.81
2022-09-01T13:05:32.722Z,64.29
2022-09-01T13:06:28.865Z,65.10
2022-09-01T13:07:28.987Z,60.91
2022-09-01T13:08:28.883Z,62.68
2022-09-01T13:09:28.851Z,61.07
2022-09-01T13:10:28.845Z,61.07
2022-09-01T13:12:05.755Z,59.62
2022-09-01T13:12:29.847Z,63.00
2022-09-01T13:13:28.836Z,65.42
2022-09-01T13:14:28.912Z,59.78
2022-09-01T13:15:28.828Z,59.30